sensor_id;sensor_type;location;lat;lon;timestamp;P1;durP1;ratioP1;P2;durP2;ratioP2
27505;SDS011;14939;43.596;1.320;2023-12-22T00:00:29;51.20;;;7.07;;
27505;SDS011;14939;43.596;1.320;2023-12-22T00:02:54;51.00;;;7.10;;
27505;SDS011;14939;43.596;1.320;2023-12-22T00:05:20;53.42;;;7.25;;
27505;SDS011;14939;43.596;1.320;2023-12-22T00:07:45;46.33;;;7.03;;
27505;SDS011;14939;43.596;1.320;2023-12-22T00:10:11;46.22;;;6.50;;
27505;SDS011;14939;43.596;1.320;2023-12-22T00:12:37;52.22;;;6.35;;
27505;SDS011;14939;43.596;1.320;2023-12-22T00:15:04;45.22;;;6.85;;
27505;SDS011;14939;43.596;1.320;2023-12-22T00:17:30;49.88;;;6.45;;
27505;SDS011;14939;43.596;1.320;2023-12-22T00:19:56;51.78;;;6.50;;
27505;SDS011;14939;43.596;1.320;2023-12-22T00:22:24;44.83;;;5.60;;
27505;SDS011;14939;43.596;1.320;2023-12-22T00:24:52;45.17;;;5.68;;
27505;SDS011;14939;43.596;1.320;2023-12-22T00:27:18;41.78;;;5.82;;
27505;SDS011;14939;43.596;1.320;2023-12-22T00:29:44;57.28;;;7.22;;
27505;SDS011;14939;43.596;1.320;2023-12-22T00:32:09;44.85;;;7.35;;
27505;SDS011;14939;43.596;1.320;2023-12-22T00:34:35;48.85;;;6.68;;
27505;SDS011;14939;43.596;1.320;2023-12-22T00:37:01;50.00;;;6.75;;
27505;SDS011;14939;43.596;1.320;2023-12-22T00:39:27;52.55;;;7.28;;
27505;SDS011;14939;43.596;1.320;2023-12-22T00:41:53;52.03;;;6.97;;
27505;SDS011;14939;43.596;1.320;2023-12-22T00:44:18;48.55;;;6.97;;
27505;SDS011;14939;43.596;1.320;2023-12-22T00:46:44;49.80;;;6.38;;
27505;SDS011;14939;43.596;1.320;2023-12-22T00:49:09;44.67;;;5.93;;
27505;SDS011;14939;43.596;1.320;2023-12-22T00:51:35;47.30;;;6.22;;
27505;SDS011;14939;43.596;1.320;2023-12-22T00:54:01;47.22;;;6.30;;
27505;SDS011;14939;43.596;1.320;2023-12-22T00:56:26;35.47;;;6.15;;
27505;SDS011;14939;43.596;1.320;2023-12-22T00:58:52;50.65;;;6.22;;
27505;SDS011;14939;43.596;1.320;2023-12-22T01:01:18;40.88;;;6.13;;
27505;SDS011;14939;43.596;1.320;2023-12-22T01:03:44;46.47;;;5.80;;
27505;SDS011;14939;43.596;1.320;2023-12-22T01:06:09;37.78;;;4.95;;
27505;SDS011;14939;43.596;1.320;2023-12-22T01:08:36;39.95;;;5.20;;
27505;SDS011;14939;43.596;1.320;2023-12-22T01:11:03;44.00;;;5.50;;
27505;SDS011;14939;43.596;1.320;2023-12-22T01:13:28;39.63;;;5.32;;
27505;SDS011;14939;43.596;1.320;2023-12-22T01:15:54;43.25;;;5.53;;
27505;SDS011;14939;43.596;1.320;2023-12-22T01:18:19;41.13;;;5.40;;
27505;SDS011;14939;43.596;1.320;2023-12-22T01:20:45;39.97;;;5.07;;
27505;SDS011;14939;43.596;1.320;2023-12-22T01:23:11;47.30;;;5.53;;
27505;SDS011;14939;43.596;1.320;2023-12-22T01:25:36;35.47;;;5.03;;
27505;SDS011;14939;43.596;1.320;2023-12-22T01:28:02;33.42;;;4.43;;
27505;SDS011;14939;43.596;1.320;2023-12-22T01:30:28;33.88;;;4.95;;
27505;SDS011;14939;43.596;1.320;2023-12-22T01:32:53;34.72;;;5.18;;
27505;SDS011;14939;43.596;1.320;2023-12-22T01:35:19;32.83;;;4.30;;
27505;SDS011;14939;43.596;1.320;2023-12-22T01:37:45;39.03;;;4.18;;
27505;SDS011;14939;43.596;1.320;2023-12-22T01:40:13;30.42;;;4.00;;
27505;SDS011;14939;43.596;1.320;2023-12-22T01:42:38;29.58;;;3.83;;
27505;SDS011;14939;43.596;1.320;2023-12-22T01:45:05;30.20;;;4.45;;
27505;SDS011;14939;43.596;1.320;2023-12-22T01:47:31;35.92;;;4.18;;
27505;SDS011;14939;43.596;1.320;2023-12-22T01:49:57;25.13;;;3.30;;
27505;SDS011;14939;43.596;1.320;2023-12-22T01:52:24;28.45;;;4.00;;
27505;SDS011;14939;43.596;1.320;2023-12-22T01:54:50;24.13;;;3.42;;
27505;SDS011;14939;43.596;1.320;2023-12-22T01:57:17;24.20;;;3.83;;
27505;SDS011;14939;43.596;1.320;2023-12-22T01:59:45;29.70;;;3.75;;
27505;SDS011;14939;43.596;1.320;2023-12-22T02:02:11;24.23;;;3.63;;
27505;SDS011;14939;43.596;1.320;2023-12-22T02:04:37;29.20;;;3.85;;
27505;SDS011;14939;43.596;1.320;2023-12-22T02:07:04;30.55;;;3.85;;
27505;SDS011;14939;43.596;1.320;2023-12-22T02:09:33;24.35;;;3.22;;
27505;SDS011;14939;43.596;1.320;2023-12-22T02:11:59;25.80;;;3.33;;
27505;SDS011;14939;43.596;1.320;2023-12-22T02:14:24;30.23;;;3.72;;
27505;SDS011;14939;43.596;1.320;2023-12-22T02:22:06;19.30;;;2.83;;
27505;SDS011;14939;43.596;1.320;2023-12-22T02:24:32;20.08;;;3.33;;
27505;SDS011;14939;43.596;1.320;2023-12-22T02:27:10;19.55;;;2.70;;
27505;SDS011;14939;43.596;1.320;2023-12-22T02:29:46;16.83;;;2.30;;
27505;SDS011;14939;43.596;1.320;2023-12-22T02:32:21;18.85;;;2.55;;
27505;SDS011;14939;43.596;1.320;2023-12-22T02:34:50;17.42;;;2.50;;
27505;SDS011;14939;43.596;1.320;2023-12-22T02:37:18;16.67;;;2.30;;
27505;SDS011;14939;43.596;1.320;2023-12-22T02:39:46;15.10;;;2.00;;
27505;SDS011;14939;43.596;1.320;2023-12-22T02:42:12;13.25;;;2.28;;
27505;SDS011;14939;43.596;1.320;2023-12-22T02:44:38;12.10;;;2.05;;
27505;SDS011;14939;43.596;1.320;2023-12-22T02:47:04;13.20;;;2.17;;
27505;SDS011;14939;43.596;1.320;2023-12-22T02:49:30;9.98;;;1.98;;
27505;SDS011;14939;43.596;1.320;2023-12-22T02:51:55;13.15;;;2.20;;
27505;SDS011;14939;43.596;1.320;2023-12-22T02:54:21;14.55;;;2.10;;
27505;SDS011;14939;43.596;1.320;2023-12-22T02:56:47;15.77;;;2.30;;
27505;SDS011;14939;43.596;1.320;2023-12-22T02:59:12;13.15;;;2.00;;
27505;SDS011;14939;43.596;1.320;2023-12-22T03:01:38;12.95;;;2.08;;
27505;SDS011;14939;43.596;1.320;2023-12-22T03:04:04;9.60;;;1.50;;
27505;SDS011;14939;43.596;1.320;2023-12-22T03:06:29;8.70;;;1.52;;
27505;SDS011;14939;43.596;1.320;2023-12-22T03:08:55;9.43;;;2.25;;
27505;SDS011;14939;43.596;1.320;2023-12-22T03:11:21;8.75;;;1.40;;
27505;SDS011;14939;43.596;1.320;2023-12-22T03:13:46;9.63;;;1.50;;
27505;SDS011;14939;43.596;1.320;2023-12-22T03:16:12;9.02;;;1.30;;
27505;SDS011;14939;43.596;1.320;2023-12-22T03:18:38;9.65;;;1.77;;
27505;SDS011;14939;43.596;1.320;2023-12-22T03:21:06;8.35;;;1.60;;
27505;SDS011;14939;43.596;1.320;2023-12-22T03:23:32;7.28;;;1.38;;
27505;SDS011;14939;43.596;1.320;2023-12-22T03:25:57;9.27;;;1.60;;
27505;SDS011;14939;43.596;1.320;2023-12-22T03:28:27;6.68;;;1.55;;
27505;SDS011;14939;43.596;1.320;2023-12-22T03:30:53;13.45;;;1.50;;
27505;SDS011;14939;43.596;1.320;2023-12-22T03:33:18;6.13;;;1.50;;
27505;SDS011;14939;43.596;1.320;2023-12-22T03:35:44;7.32;;;1.23;;
27505;SDS011;14939;43.596;1.320;2023-12-22T03:38:10;9.63;;;1.50;;
27505;SDS011;14939;43.596;1.320;2023-12-22T03:40:35;6.28;;;1.20;;
27505;SDS011;14939;43.596;1.320;2023-12-22T03:43:01;9.40;;;1.48;;
27505;SDS011;14939;43.596;1.320;2023-12-22T03:45:26;6.10;;;1.30;;
27505;SDS011;14939;43.596;1.320;2023-12-22T03:47:52;10.75;;;1.45;;
27505;SDS011;14939;43.596;1.320;2023-12-22T03:50:18;5.35;;;1.27;;
27505;SDS011;14939;43.596;1.320;2023-12-22T03:52:43;7.07;;;1.20;;
27505;SDS011;14939;43.596;1.320;2023-12-22T03:55:09;9.82;;;1.75;;
27505;SDS011;14939;43.596;1.320;2023-12-22T03:57:35;7.47;;;1.50;;
27505;SDS011;14939;43.596;1.320;2023-12-22T04:00:00;10.23;;;1.50;;
27505;SDS011;14939;43.596;1.320;2023-12-22T04:02:26;7.63;;;1.17;;
27505;SDS011;14939;43.596;1.320;2023-12-22T04:04:51;8.55;;;1.40;;
27505;SDS011;14939;43.596;1.320;2023-12-22T04:07:17;8.25;;;1.80;;
27505;SDS011;14939;43.596;1.320;2023-12-22T04:09:43;7.20;;;1.10;;
27505;SDS011;14939;43.596;1.320;2023-12-22T04:12:08;9.93;;;1.35;;
27505;SDS011;14939;43.596;1.320;2023-12-22T04:14:34;6.15;;;1.33;;
27505;SDS011;14939;43.596;1.320;2023-12-22T04:17:00;8.85;;;1.50;;
27505;SDS011;14939;43.596;1.320;2023-12-22T04:19:25;8.25;;;0.98;;
27505;SDS011;14939;43.596;1.320;2023-12-22T04:21:51;5.50;;;1.33;;
27505;SDS011;14939;43.596;1.320;2023-12-22T04:24:16;5.15;;;1.02;;
27505;SDS011;14939;43.596;1.320;2023-12-22T04:26:42;4.32;;;0.90;;
27505;SDS011;14939;43.596;1.320;2023-12-22T04:29:08;3.70;;;1.08;;
27505;SDS011;14939;43.596;1.320;2023-12-22T04:31:33;3.30;;;1.10;;
27505;SDS011;14939;43.596;1.320;2023-12-22T04:33:59;6.35;;;1.15;;
27505;SDS011;14939;43.596;1.320;2023-12-22T04:36:25;4.60;;;0.85;;
27505;SDS011;14939;43.596;1.320;2023-12-22T04:38:50;5.10;;;0.82;;
27505;SDS011;14939;43.596;1.320;2023-12-22T04:41:16;4.07;;;0.90;;
27505;SDS011;14939;43.596;1.320;2023-12-22T04:43:41;2.63;;;0.70;;
27505;SDS011;14939;43.596;1.320;2023-12-22T04:46:07;2.78;;;0.90;;
27505;SDS011;14939;43.596;1.320;2023-12-22T04:48:33;5.65;;;0.90;;
27505;SDS011;14939;43.596;1.320;2023-12-22T04:50:58;3.70;;;0.77;;
27505;SDS011;14939;43.596;1.320;2023-12-22T04:53:24;3.45;;;0.73;;
27505;SDS011;14939;43.596;1.320;2023-12-22T04:55:50;3.75;;;1.00;;
27505;SDS011;14939;43.596;1.320;2023-12-22T04:58:15;4.95;;;0.98;;
27505;SDS011;14939;43.596;1.320;2023-12-22T05:00:41;1.33;;;0.50;;
27505;SDS011;14939;43.596;1.320;2023-12-22T05:03:06;2.90;;;0.68;;
27505;SDS011;14939;43.596;1.320;2023-12-22T05:05:32;2.28;;;0.50;;
27505;SDS011;14939;43.596;1.320;2023-12-22T05:07:57;2.67;;;0.50;;
27505;SDS011;14939;43.596;1.320;2023-12-22T05:10:24;2.72;;;0.50;;
27505;SDS011;14939;43.596;1.320;2023-12-22T05:12:49;2.85;;;0.93;;
27505;SDS011;14939;43.596;1.320;2023-12-22T05:15:15;1.48;;;0.57;;
27505;SDS011;14939;43.596;1.320;2023-12-22T05:17:41;1.42;;;0.63;;
27505;SDS011;14939;43.596;1.320;2023-12-22T05:20:07;1.33;;;0.70;;
27505;SDS011;14939;43.596;1.320;2023-12-22T05:22:36;4.47;;;0.55;;
27505;SDS011;14939;43.596;1.320;2023-12-22T05:25:01;2.38;;;0.65;;
27505;SDS011;14939;43.596;1.320;2023-12-22T05:27:27;2.78;;;0.60;;
27505;SDS011;14939;43.596;1.320;2023-12-22T05:29:53;4.03;;;0.80;;
27505;SDS011;14939;43.596;1.320;2023-12-22T05:32:18;3.08;;;0.80;;
27505;SDS011;14939;43.596;1.320;2023-12-22T05:34:44;5.60;;;1.15;;
27505;SDS011;14939;43.596;1.320;2023-12-22T05:37:10;1.85;;;1.00;;
27505;SDS011;14939;43.596;1.320;2023-12-22T05:39:35;5.07;;;1.27;;
27505;SDS011;14939;43.596;1.320;2023-12-22T05:42:01;3.95;;;2.22;;
27505;SDS011;14939;43.596;1.320;2023-12-22T05:44:26;5.60;;;2.50;;
27505;SDS011;14939;43.596;1.320;2023-12-22T05:46:55;4.45;;;0.95;;
27505;SDS011;14939;43.596;1.320;2023-12-22T05:49:21;3.17;;;1.08;;
27505;SDS011;14939;43.596;1.320;2023-12-22T05:51:48;3.85;;;1.27;;
27505;SDS011;14939;43.596;1.320;2023-12-22T05:54:15;3.35;;;1.35;;
27505;SDS011;14939;43.596;1.320;2023-12-22T05:56:42;1.75;;;1.10;;
27505;SDS011;14939;43.596;1.320;2023-12-22T05:59:07;3.70;;;1.10;;
27505;SDS011;14939;43.596;1.320;2023-12-22T06:01:33;5.35;;;1.33;;
27505;SDS011;14939;43.596;1.320;2023-12-22T06:03:58;1.48;;;0.68;;
27505;SDS011;14939;43.596;1.320;2023-12-22T06:06:24;1.77;;;1.10;;
27505;SDS011;14939;43.596;1.320;2023-12-22T06:08:50;2.38;;;1.02;;
27505;SDS011;14939;43.596;1.320;2023-12-22T06:11:15;3.17;;;1.30;;
27505;SDS011;14939;43.596;1.320;2023-12-22T06:13:41;1.55;;;1.20;;
27505;SDS011;14939;43.596;1.320;2023-12-22T06:16:10;1.45;;;1.23;;
27505;SDS011;14939;43.596;1.320;2023-12-22T06:18:40;1.35;;;0.73;;
27505;SDS011;14939;43.596;1.320;2023-12-22T06:21:06;1.20;;;0.70;;
27505;SDS011;14939;43.596;1.320;2023-12-22T06:23:32;1.38;;;1.10;;
27505;SDS011;14939;43.596;1.320;2023-12-22T06:25:58;3.92;;;1.40;;
27505;SDS011;14939;43.596;1.320;2023-12-22T06:28:23;3.28;;;1.00;;
27505;SDS011;14939;43.596;1.320;2023-12-22T06:30:49;2.53;;;0.80;;
27505;SDS011;14939;43.596;1.320;2023-12-22T06:33:14;2.20;;;0.75;;
27505;SDS011;14939;43.596;1.320;2023-12-22T06:35:40;4.47;;;0.98;;
27505;SDS011;14939;43.596;1.320;2023-12-22T06:38:06;3.45;;;1.40;;
27505;SDS011;14939;43.596;1.320;2023-12-22T06:40:34;2.78;;;1.20;;
27505;SDS011;14939;43.596;1.320;2023-12-22T06:43:00;2.53;;;1.40;;
27505;SDS011;14939;43.596;1.320;2023-12-22T06:45:25;1.45;;;0.80;;
27505;SDS011;14939;43.596;1.320;2023-12-22T06:47:51;2.28;;;0.95;;
27505;SDS011;14939;43.596;1.320;2023-12-22T06:50:16;3.72;;;0.98;;
27505;SDS011;14939;43.596;1.320;2023-12-22T06:52:42;3.33;;;1.42;;
27505;SDS011;14939;43.596;1.320;2023-12-22T06:55:08;3.05;;;0.93;;
27505;SDS011;14939;43.596;1.320;2023-12-22T06:57:33;2.03;;;0.75;;
27505;SDS011;14939;43.596;1.320;2023-12-22T06:59:59;1.90;;;1.13;;
27505;SDS011;14939;43.596;1.320;2023-12-22T07:02:25;3.03;;;1.50;;
27505;SDS011;14939;43.596;1.320;2023-12-22T07:05:01;2.72;;;0.93;;
27505;SDS011;14939;43.596;1.320;2023-12-22T07:07:33;2.22;;;0.90;;
27505;SDS011;14939;43.596;1.320;2023-12-22T07:09:58;1.88;;;0.77;;
27505;SDS011;14939;43.596;1.320;2023-12-22T07:12:24;3.35;;;1.20;;
27505;SDS011;14939;43.596;1.320;2023-12-22T07:14:50;3.58;;;1.40;;
27505;SDS011;14939;43.596;1.320;2023-12-22T07:17:15;1.75;;;0.80;;
27505;SDS011;14939;43.596;1.320;2023-12-22T07:19:41;1.35;;;0.90;;
27505;SDS011;14939;43.596;1.320;2023-12-22T07:22:07;0.95;;;0.70;;
27505;SDS011;14939;43.596;1.320;2023-12-22T07:24:32;4.32;;;2.40;;
27505;SDS011;14939;43.596;1.320;2023-12-22T07:26:58;2.72;;;1.40;;
27505;SDS011;14939;43.596;1.320;2023-12-22T07:29:23;2.92;;;1.20;;
27505;SDS011;14939;43.596;1.320;2023-12-22T07:31:49;4.30;;;1.70;;
27505;SDS011;14939;43.596;1.320;2023-12-22T07:34:15;1.23;;;1.10;;
27505;SDS011;14939;43.596;1.320;2023-12-22T07:36:41;4.00;;;1.13;;
27505;SDS011;14939;43.596;1.320;2023-12-22T07:39:07;2.58;;;1.02;;
27505;SDS011;14939;43.596;1.320;2023-12-22T07:41:34;2.22;;;0.85;;
27505;SDS011;14939;43.596;1.320;2023-12-22T07:44:00;3.25;;;1.40;;
27505;SDS011;14939;43.596;1.320;2023-12-22T07:46:26;2.05;;;1.10;;
27505;SDS011;14939;43.596;1.320;2023-12-22T07:48:53;3.55;;;1.35;;
27505;SDS011;14939;43.596;1.320;2023-12-22T07:51:19;2.63;;;1.05;;
27505;SDS011;14939;43.596;1.320;2023-12-22T07:53:45;1.23;;;0.75;;
27505;SDS011;14939;43.596;1.320;2023-12-22T07:56:11;3.20;;;0.68;;
27505;SDS011;14939;43.596;1.320;2023-12-22T07:58:37;1.38;;;0.80;;
27505;SDS011;14939;43.596;1.320;2023-12-22T08:01:03;2.55;;;1.25;;
27505;SDS011;14939;43.596;1.320;2023-12-22T08:03:30;2.75;;;1.15;;
27505;SDS011;14939;43.596;1.320;2023-12-22T08:05:56;1.80;;;1.13;;
27505;SDS011;14939;43.596;1.320;2023-12-22T08:08:22;1.73;;;0.90;;
27505;SDS011;14939;43.596;1.320;2023-12-22T08:10:48;3.70;;;1.05;;
27505;SDS011;14939;43.596;1.320;2023-12-22T08:13:13;1.80;;;0.90;;
27505;SDS011;14939;43.596;1.320;2023-12-22T08:15:39;2.75;;;1.02;;
27505;SDS011;14939;43.596;1.320;2023-12-22T08:18:06;4.65;;;3.45;;
27505;SDS011;14939;43.596;1.320;2023-12-22T08:20:32;3.88;;;2.80;;
27505;SDS011;14939;43.596;1.320;2023-12-22T08:22:57;4.97;;;3.08;;
27505;SDS011;14939;43.596;1.320;2023-12-22T08:25:23;5.15;;;4.20;;
27505;SDS011;14939;43.596;1.320;2023-12-22T08:27:48;2.30;;;1.10;;
27505;SDS011;14939;43.596;1.320;2023-12-22T08:30:14;2.55;;;1.63;;
27505;SDS011;14939;43.596;1.320;2023-12-22T08:32:40;2.88;;;1.00;;
27505;SDS011;14939;43.596;1.320;2023-12-22T08:35:05;1.55;;;1.10;;
27505;SDS011;14939;43.596;1.320;2023-12-22T08:37:32;1.25;;;1.10;;
27505;SDS011;14939;43.596;1.320;2023-12-22T08:39:57;4.00;;;0.95;;
27505;SDS011;14939;43.596;1.320;2023-12-22T08:42:26;3.13;;;0.90;;
27505;SDS011;14939;43.596;1.320;2023-12-22T08:44:54;3.03;;;1.05;;
27505;SDS011;14939;43.596;1.320;2023-12-22T08:47:20;4.28;;;1.35;;
27505;SDS011;14939;43.596;1.320;2023-12-22T08:49:45;2.30;;;1.50;;
27505;SDS011;14939;43.596;1.320;2023-12-22T08:52:11;6.32;;;2.92;;
27505;SDS011;14939;43.596;1.320;2023-12-22T08:54:38;14.07;;;4.85;;
27505;SDS011;14939;43.596;1.320;2023-12-22T08:57:04;4.30;;;1.77;;
27505;SDS011;14939;43.596;1.320;2023-12-22T08:59:29;3.53;;;1.65;;
27505;SDS011;14939;43.596;1.320;2023-12-22T09:01:55;2.53;;;1.40;;
27505;SDS011;14939;43.596;1.320;2023-12-22T09:04:21;2.33;;;1.40;;
27505;SDS011;14939;43.596;1.320;2023-12-22T09:06:48;3.33;;;1.27;;
27505;SDS011;14939;43.596;1.320;2023-12-22T09:09:14;3.35;;;1.70;;
27505;SDS011;14939;43.596;1.320;2023-12-22T09:11:40;3.33;;;1.60;;
27505;SDS011;14939;43.596;1.320;2023-12-22T09:14:06;2.28;;;1.10;;
27505;SDS011;14939;43.596;1.320;2023-12-22T09:16:34;3.17;;;1.15;;
27505;SDS011;14939;43.596;1.320;2023-12-22T09:19:01;2.33;;;1.50;;
27505;SDS011;14939;43.596;1.320;2023-12-22T09:21:27;1.75;;;1.02;;
27505;SDS011;14939;43.596;1.320;2023-12-22T09:23:53;1.77;;;0.80;;
27505;SDS011;14939;43.596;1.320;2023-12-22T09:26:19;3.25;;;1.23;;
27505;SDS011;14939;43.596;1.320;2023-12-22T09:28:44;4.10;;;1.48;;
27505;SDS011;14939;43.596;1.320;2023-12-22T09:31:10;3.47;;;2.53;;
27505;SDS011;14939;43.596;1.320;2023-12-22T09:33:37;2.10;;;1.52;;
27505;SDS011;14939;43.596;1.320;2023-12-22T09:36:04;2.72;;;1.33;;
27505;SDS011;14939;43.596;1.320;2023-12-22T09:38:30;3.72;;;1.75;;
27505;SDS011;14939;43.596;1.320;2023-12-22T09:40:56;5.45;;;2.00;;
27505;SDS011;14939;43.596;1.320;2023-12-22T09:43:23;4.25;;;1.50;;
27505;SDS011;14939;43.596;1.320;2023-12-22T09:45:49;3.22;;;1.52;;
27505;SDS011;14939;43.596;1.320;2023-12-22T09:48:17;3.15;;;1.38;;
27505;SDS011;14939;43.596;1.320;2023-12-22T09:50:46;3.63;;;1.40;;
27505;SDS011;14939;43.596;1.320;2023-12-22T09:53:12;2.97;;;1.00;;
27505;SDS011;14939;43.596;1.320;2023-12-22T09:55:42;2.78;;;1.50;;
27505;SDS011;14939;43.596;1.320;2023-12-22T09:58:13;2.42;;;1.40;;
27505;SDS011;14939;43.596;1.320;2023-12-22T10:00:40;2.42;;;1.40;;
27505;SDS011;14939;43.596;1.320;2023-12-22T10:03:07;3.78;;;1.65;;
27505;SDS011;14939;43.596;1.320;2023-12-22T10:05:34;2.60;;;1.40;;
27505;SDS011;14939;43.596;1.320;2023-12-22T10:08:00;1.60;;;1.20;;
27505;SDS011;14939;43.596;1.320;2023-12-22T10:10:27;5.80;;;2.33;;
27505;SDS011;14939;43.596;1.320;2023-12-22T10:12:56;5.78;;;2.42;;
27505;SDS011;14939;43.596;1.320;2023-12-22T10:15:24;3.78;;;1.63;;
27505;SDS011;14939;43.596;1.320;2023-12-22T10:17:54;3.58;;;1.67;;
27505;SDS011;14939;43.596;1.320;2023-12-22T10:20:20;2.00;;;1.50;;
27505;SDS011;14939;43.596;1.320;2023-12-22T10:22:45;3.78;;;1.73;;
27505;SDS011;14939;43.596;1.320;2023-12-22T10:25:14;1.83;;;1.40;;
27505;SDS011;14939;43.596;1.320;2023-12-22T10:27:41;1.67;;;1.20;;
27505;SDS011;14939;43.596;1.320;2023-12-22T10:30:07;2.50;;;1.45;;
27505;SDS011;14939;43.596;1.320;2023-12-22T10:32:39;4.50;;;1.20;;
27505;SDS011;14939;43.596;1.320;2023-12-22T10:35:06;2.80;;;0.90;;
27505;SDS011;14939;43.596;1.320;2023-12-22T10:37:33;3.28;;;1.10;;
27505;SDS011;14939;43.596;1.320;2023-12-22T10:39:58;1.60;;;1.00;;
27505;SDS011;14939;43.596;1.320;2023-12-22T10:42:24;2.25;;;1.15;;
27505;SDS011;14939;43.596;1.320;2023-12-22T10:44:50;1.88;;;1.00;;
27505;SDS011;14939;43.596;1.320;2023-12-22T10:47:17;2.63;;;1.08;;
27505;SDS011;14939;43.596;1.320;2023-12-22T10:49:43;2.17;;;1.00;;
27505;SDS011;14939;43.596;1.320;2023-12-22T10:52:15;2.50;;;1.10;;
27505;SDS011;14939;43.596;1.320;2023-12-22T10:54:42;2.50;;;1.30;;
27505;SDS011;14939;43.596;1.320;2023-12-22T10:57:09;3.30;;;1.90;;
27505;SDS011;14939;43.596;1.320;2023-12-22T10:59:35;3.28;;;1.23;;
27505;SDS011;14939;43.596;1.320;2023-12-22T11:02:15;2.55;;;2.03;;
27505;SDS011;14939;43.596;1.320;2023-12-22T11:05:06;4.50;;;1.92;;
27505;SDS011;14939;43.596;1.320;2023-12-22T11:07:35;3.00;;;1.30;;
27505;SDS011;14939;43.596;1.320;2023-12-22T11:10:03;2.65;;;1.60;;
27505;SDS011;14939;43.596;1.320;2023-12-22T11:12:37;2.80;;;1.80;;
27505;SDS011;14939;43.596;1.320;2023-12-22T11:15:04;3.70;;;1.75;;
27505;SDS011;14939;43.596;1.320;2023-12-22T11:17:34;5.93;;;2.85;;
27505;SDS011;14939;43.596;1.320;2023-12-22T11:20:00;1.90;;;1.70;;
27505;SDS011;14939;43.596;1.320;2023-12-22T11:22:27;3.83;;;1.88;;
27505;SDS011;14939;43.596;1.320;2023-12-22T11:24:56;3.42;;;1.75;;
27505;SDS011;14939;43.596;1.320;2023-12-22T11:27:25;3.85;;;2.10;;
27505;SDS011;14939;43.596;1.320;2023-12-22T11:29:51;4.32;;;2.40;;
27505;SDS011;14939;43.596;1.320;2023-12-22T11:32:18;2.28;;;1.40;;
27505;SDS011;14939;43.596;1.320;2023-12-22T11:34:45;2.25;;;1.15;;
27505;SDS011;14939;43.596;1.320;2023-12-22T11:37:12;1.45;;;1.10;;
27505;SDS011;14939;43.596;1.320;2023-12-22T11:39:39;2.67;;;1.60;;
27505;SDS011;14939;43.596;1.320;2023-12-22T11:42:06;3.00;;;1.80;;
27505;SDS011;14939;43.596;1.320;2023-12-22T11:44:35;2.60;;;1.30;;
27505;SDS011;14939;43.596;1.320;2023-12-22T11:47:07;3.08;;;1.00;;
27505;SDS011;14939;43.596;1.320;2023-12-22T11:49:37;2.53;;;0.93;;
27505;SDS011;14939;43.596;1.320;2023-12-22T11:52:09;2.45;;;1.25;;
27505;SDS011;14939;43.596;1.320;2023-12-22T11:54:51;2.25;;;1.60;;
27505;SDS011;14939;43.596;1.320;2023-12-22T11:59:58;2.42;;;1.63;;
27505;SDS011;14939;43.596;1.320;2023-12-22T12:02:32;5.70;;;1.70;;
27505;SDS011;14939;43.596;1.320;2023-12-22T12:05:01;2.38;;;1.40;;
27505;SDS011;14939;43.596;1.320;2023-12-22T12:10:10;4.35;;;1.70;;
27505;SDS011;14939;43.596;1.320;2023-12-22T12:12:37;5.80;;;2.00;;
27505;SDS011;14939;43.596;1.320;2023-12-22T12:15:10;3.38;;;2.13;;
27505;SDS011;14939;43.596;1.320;2023-12-22T12:17:42;4.03;;;1.35;;
27505;SDS011;14939;43.596;1.320;2023-12-22T12:20:11;2.75;;;1.40;;
27505;SDS011;14939;43.596;1.320;2023-12-22T12:22:37;3.08;;;1.63;;
27505;SDS011;14939;43.596;1.320;2023-12-22T12:25:07;2.85;;;1.33;;
27505;SDS011;14939;43.596;1.320;2023-12-22T12:27:37;3.75;;;1.40;;
27505;SDS011;14939;43.596;1.320;2023-12-22T12:30:06;5.57;;;2.20;;
27505;SDS011;14939;43.596;1.320;2023-12-22T12:32:42;3.58;;;1.77;;
27505;SDS011;14939;43.596;1.320;2023-12-22T12:35:11;3.72;;;2.03;;
27505;SDS011;14939;43.596;1.320;2023-12-22T12:37:37;2.88;;;1.80;;
27505;SDS011;14939;43.596;1.320;2023-12-22T12:40:04;3.83;;;1.55;;
27505;SDS011;14939;43.596;1.320;2023-12-22T12:42:33;2.75;;;1.80;;
27505;SDS011;14939;43.596;1.320;2023-12-22T12:45:03;2.22;;;1.60;;
27505;SDS011;14939;43.596;1.320;2023-12-22T12:47:30;3.45;;;1.20;;
27505;SDS011;14939;43.596;1.320;2023-12-22T12:49:56;2.05;;;1.50;;
27505;SDS011;14939;43.596;1.320;2023-12-22T12:52:26;3.78;;;1.48;;
27505;SDS011;14939;43.596;1.320;2023-12-22T12:54:52;2.13;;;1.67;;
27505;SDS011;14939;43.596;1.320;2023-12-22T12:57:18;3.67;;;2.53;;
27505;SDS011;14939;43.596;1.320;2023-12-22T12:59:45;3.10;;;1.70;;
27505;SDS011;14939;43.596;1.320;2023-12-22T13:02:11;3.22;;;1.80;;
27505;SDS011;14939;43.596;1.320;2023-12-22T13:04:37;3.15;;;2.03;;
27505;SDS011;14939;43.596;1.320;2023-12-22T13:07:03;4.88;;;2.83;;
27505;SDS011;14939;43.596;1.320;2023-12-22T13:09:33;5.68;;;2.60;;
27505;SDS011;14939;43.596;1.320;2023-12-22T13:11:59;5.70;;;2.28;;
27505;SDS011;14939;43.596;1.320;2023-12-22T13:14:25;3.28;;;2.20;;
27505;SDS011;14939;43.596;1.320;2023-12-22T13:16:55;3.63;;;2.33;;
27505;SDS011;14939;43.596;1.320;2023-12-22T13:19:25;6.25;;;2.30;;
27505;SDS011;14939;43.596;1.320;2023-12-22T13:21:55;3.38;;;1.60;;
27505;SDS011;14939;43.596;1.320;2023-12-22T13:24:21;2.42;;;2.05;;
27505;SDS011;14939;43.596;1.320;2023-12-22T13:26:58;2.05;;;1.52;;
27505;SDS011;14939;43.596;1.320;2023-12-22T13:29:26;4.32;;;2.10;;
27505;SDS011;14939;43.596;1.320;2023-12-22T13:31:51;3.45;;;1.63;;
27505;SDS011;14939;43.596;1.320;2023-12-22T13:34:17;2.90;;;1.20;;
27505;SDS011;14939;43.596;1.320;2023-12-22T13:36:43;1.80;;;1.23;;
27505;SDS011;14939;43.596;1.320;2023-12-22T13:39:09;3.08;;;1.60;;
27505;SDS011;14939;43.596;1.320;2023-12-22T13:41:40;1.23;;;1.10;;
27505;SDS011;14939;43.596;1.320;2023-12-22T13:44:10;2.50;;;1.10;;
27505;SDS011;14939;43.596;1.320;2023-12-22T13:46:36;1.60;;;1.38;;
27505;SDS011;14939;43.596;1.320;2023-12-22T13:49:06;3.60;;;1.75;;
27505;SDS011;14939;43.596;1.320;2023-12-22T13:54:09;1.52;;;1.05;;
27505;SDS011;14939;43.596;1.320;2023-12-22T13:56:36;3.33;;;1.55;;
27505;SDS011;14939;43.596;1.320;2023-12-22T13:59:05;1.50;;;1.08;;
27505;SDS011;14939;43.596;1.320;2023-12-22T14:01:31;2.20;;;1.10;;
27505;SDS011;14939;43.596;1.320;2023-12-22T14:03:57;5.07;;;2.38;;
27505;SDS011;14939;43.596;1.320;2023-12-22T14:06:25;2.30;;;1.80;;
27505;SDS011;14939;43.596;1.320;2023-12-22T14:08:51;1.70;;;1.10;;
27505;SDS011;14939;43.596;1.320;2023-12-22T14:11:17;2.00;;;1.20;;
27505;SDS011;14939;43.596;1.320;2023-12-22T14:13:43;2.53;;;1.52;;
27505;SDS011;14939;43.596;1.320;2023-12-22T14:16:09;3.60;;;1.50;;
27505;SDS011;14939;43.596;1.320;2023-12-22T14:18:35;4.03;;;2.83;;
27505;SDS011;14939;43.596;1.320;2023-12-22T14:21:00;2.08;;;1.50;;
27505;SDS011;14939;43.596;1.320;2023-12-22T14:23:26;4.95;;;1.58;;
27505;SDS011;14939;43.596;1.320;2023-12-22T14:25:52;2.65;;;1.35;;
27505;SDS011;14939;43.596;1.320;2023-12-22T14:28:18;2.22;;;1.40;;
27505;SDS011;14939;43.596;1.320;2023-12-22T14:30:44;4.78;;;1.80;;
27505;SDS011;14939;43.596;1.320;2023-12-22T14:33:10;4.82;;;1.83;;
27505;SDS011;14939;43.596;1.320;2023-12-22T14:35:35;4.38;;;1.70;;
27505;SDS011;14939;43.596;1.320;2023-12-22T14:38:02;2.13;;;1.08;;
27505;SDS011;14939;43.596;1.320;2023-12-22T14:40:27;3.75;;;1.10;;
27505;SDS011;14939;43.596;1.320;2023-12-22T14:42:53;2.97;;;1.33;;
27505;SDS011;14939;43.596;1.320;2023-12-22T14:45:19;5.53;;;1.65;;
27505;SDS011;14939;43.596;1.320;2023-12-22T14:47:44;4.85;;;1.52;;
27505;SDS011;14939;43.596;1.320;2023-12-22T14:50:10;3.42;;;1.52;;
27505;SDS011;14939;43.596;1.320;2023-12-22T14:52:35;4.57;;;1.42;;
27505;SDS011;14939;43.596;1.320;2023-12-22T14:55:01;3.58;;;1.27;;